Terminal Aerodrome Forecast
Issued by NWS Melbourne, FL

Home | Current Version | Previous Version | Text Only | Print | Product List | Glossary On
Versions: 1 2 3 4 5 6 7 8 9 10 11 12 13 14 15 16 17 18 19 20 21 22 23 24 25 26 27 28 29 30 31
590
FTUS42 KMLB 180318 AAA
TAFMCO
TAF AMD
KMCO 180318Z 1803/1906 16003KT P6SM FEW300
     FM180700 VRB02KT 4SM BR SCT004
      TEMPO 1809/1813 1SM BR BKN004
     FM181500 17005KT P6SM FEW009 SCT015 SCT250
     FM181800 18005KT P6SM SCT035 SCT050 SCT250
     FM190000 VRB04KT P6SM FEW045 SCT250=

USA.gov is the U.S. government's official web portal to all federal, state and local government web resources and services.